Time;durP1;ratioP1;P1;durP2;ratioP2;P2;SDS_P1;SDS_P2;PMS_P1;PMS_P2;Temp;Humidity;BMP_temperature;BMP_pressure;BME280_temperature;BME280_humidity;BME280_pressure;Samples;Min_cycle;Max_cycle;Signal;HPM_P1;HPM_P2
2021/01/03 00:01:28;;;;;;;39.08;23.95;;;;;;;4.44;70.72;100653.31;5083809;28;20020;-81
2021/01/03 00:03:53;;;;;;;37.38;23.45;;;;;;;4.40;70.12;100649.13;5093975;28;20024;-81
2021/01/03 00:06:19;;;;;;;38.60;24.42;;;;;;;4.44;71.04;100649.84;5093988;28;20070;-81
2021/01/03 00:08:44;;;;;;;36.05;23.23;;;;;;;4.41;70.81;100645.63;5092233;28;20020;-81
2021/01/03 00:11:10;;;;;;;38.05;23.70;;;;;;;4.40;70.99;100643.09;5093826;28;20028;-81
2021/01/03 00:13:35;;;;;;;34.65;22.35;;;;;;;4.49;71.18;100650.53;5094204;28;20016;-81
2021/01/03 00:16:00;;;;;;;35.95;23.73;;;;;;;4.54;71.11;100652.06;5091869;28;20047;-81
2021/01/03 00:18:26;;;;;;;35.42;22.55;;;;;;;4.46;71.25;100640.25;5092336;28;20031;-81
2021/01/03 00:20:51;;;;;;;35.47;22.90;;;;;;;4.50;71.48;100644.41;5093660;28;20020;-81
2021/01/03 00:23:18;;;;;;;34.85;22.15;;;;;;;4.28;71.11;100644.41;5093415;28;20459;-81
2021/01/03 00:25:44;;;;;;;33.50;22.23;;;;;;;4.37;72.63;100646.66;5093597;28;20028;-81
2021/01/03 00:28:10;;;;;;;34.88;22.77;;;;;;;4.47;70.88;100645.41;5090327;28;20081;-81
2021/01/03 00:30:35;;;;;;;35.83;22.98;;;;;;;4.46;71.62;100648.88;5093438;28;20074;-81
2021/01/03 00:33:00;;;;;;;33.30;21.92;;;;;;;4.35;72.02;100645.88;5093417;28;20020;-81
2021/01/03 00:35:31;;;;;;;36.90;24.63;;;;;;;4.07;72.40;100659.03;5093305;28;20028;-81
2021/01/03 00:37:59;;;;;;;38.00;24.48;;;;;;;4.18;72.94;100654.28;5093255;28;20074;-81
2021/01/03 00:40:25;;;;;;;36.42;23.08;;;;;;;4.33;71.95;100645.09;5091911;28;20082;-81
2021/01/03 00:42:50;;;;;;;34.22;20.95;;;;;;;4.36;72.00;100651.03;5077875;28;20090;-81
2021/01/03 00:45:16;;;;;;;32.55;21.08;;;;;;;4.43;71.84;100650.78;5091058;28;20020;-81
2021/01/03 00:47:41;;;;;;;31.50;20.25;;;;;;;4.40;71.76;100646.53;5093197;28;20101;-80
2021/01/03 00:50:09;;;;;;;31.80;20.88;;;;;;;4.30;71.46;100645.19;5093107;28;20020;-81
2021/01/03 00:52:35;;;;;;;29.02;18.27;;;;;;;4.33;72.15;100645.94;5092959;28;20111;-81
2021/01/03 00:55:00;;;;;;;27.13;17.63;;;;;;;4.43;71.84;100651.63;5092922;28;20107;-80
2021/01/03 00:57:26;;;;;;;32.30;19.70;;;;;;;4.31;71.13;100647.72;5091734;28;20031;-81
2021/01/03 00:59:51;;;;;;;27.13;17.40;;;;;;;4.17;72.62;100630.06;5091080;28;20043;-80
2021/01/03 01:02:17;;;;;;;25.85;16.40;;;;;;;4.37;72.24;100641.47;5092780;28;20023;-80
2021/01/03 01:04:42;;;;;;;27.30;16.92;;;;;;;4.36;71.50;100644.94;5092906;28;20028;-80
2021/01/03 01:07:08;;;;;;;24.75;15.70;;;;;;;4.42;71.61;100641.28;5092777;28;20039;-81
2021/01/03 01:09:33;;;;;;;21.95;14.73;;;;;;;4.31;71.87;100637.34;5092700;28;20382;-80
2021/01/03 01:11:58;;;;;;;23.25;15.07;;;;;;;4.39;72.67;100644.84;5093202;28;20258;-80
2021/01/03 01:14:24;;;;;;;24.98;16.48;;;;;;;4.31;71.47;100634.75;5077319;28;20032;-81
2021/01/03 01:16:49;;;;;;;25.58;16.02;;;;;;;4.26;71.98;100631.47;5072213;28;20058;-80
2021/01/03 01:19:15;;;;;;;24.55;16.23;;;;;;;4.26;72.39;100631.47;5072422;28;20028;-81
2021/01/03 01:21:40;;;;;;;28.00;17.98;;;;;;;4.30;72.57;100633.03;5072147;28;20467;-80
2021/01/03 01:24:06;;;;;;;26.40;17.50;;;;;;;4.36;73.19;100630.22;5071995;28;20335;-80
2021/01/03 01:26:31;;;;;;;33.72;19.67;;;;;;;4.47;72.73;100636.75;5072251;28;20041;-81
2021/01/03 01:28:57;;;;;;;30.58;19.60;;;;;;;4.39;72.71;100618.00;5084959;28;20030;-80
2021/01/03 01:31:22;;;;;;;32.33;20.70;;;;;;;4.50;72.51;100621.88;5092393;28;20024;-80
2021/01/03 01:33:47;;;;;;;30.48;21.20;;;;;;;4.56;72.29;100625.97;5092240;28;20474;-80
2021/01/03 01:36:13;;;;;;;50.67;25.10;;;;;;;4.12;73.17;100620.75;5090534;28;20024;-80
2021/01/03 01:38:38;;;;;;;35.45;22.10;;;;;;;4.37;72.99;100616.31;5092098;28;20028;-80
2021/01/03 01:41:04;;;;;;;33.45;21.58;;;;;;;4.58;72.16;100621.56;5090986;28;20024;-80
2021/01/03 01:43:29;;;;;;;38.53;24.40;;;;;;;4.36;73.10;100627.63;5092292;28;20043;-80
2021/01/03 01:45:54;;;;;;;35.03;23.15;;;;;;;4.52;72.90;100621.81;5090445;28;20111;-80
2021/01/03 01:48:27;;;;;;;36.85;22.17;;;;;;;4.66;71.21;100619.53;5072437;28;20070;-80
2021/01/03 01:50:59;;;;;;;37.15;22.98;;;;;;;4.35;72.40;100630.28;5072002;28;20092;-80
2021/01/03 01:53:28;;;;;;;;;;;;;;;4.33;73.29;100629.50;5072263;28;20436;-80
2021/01/03 01:56:02;;;;;;;36.13;22.50;;;;;;;4.13;73.85;100633.69;5071797;28;19921;-80
2021/01/03 01:58:34;;;;;;;33.45;22.40;;;;;;;4.28;72.86;100637.44;5071692;28;20059;-80
2021/01/03 02:01:03;;;;;;;32.67;22.00;;;;;;;4.19;74.29;100637.81;5072735;28;20115;-80
2021/01/03 02:03:52;;;;;;;33.05;21.45;;;;;;;4.37;73.69;100637.09;5091769;28;20039;-80
2021/01/03 02:06:53;;;;;;;34.97;22.95;;;;;;;4.34;72.92;100641.56;5080960;28;20074;-80
2021/01/03 02:09:28;;;;;;;33.85;21.13;;;;;;;4.21;73.75;100630.81;5077989;28;20032;-80
2021/01/03 02:12:22;;;;;;;32.65;21.52;;;;;;;4.41;73.24;100643.03;5092373;28;20020;-80
2021/01/03 02:14:47;;;;;;;26.98;17.95;;;;;;;4.44;72.61;100634.25;5091841;28;20093;-80
2021/01/03 02:17:12;;;;;;;25.58;18.17;;;;;;;4.51;72.44;100643.53;5079094;28;20032;-81
2021/01/03 02:19:38;;;;;;;25.30;18.02;;;;;;;4.40;72.99;100632.69;5071643;28;20035;-81
2021/01/03 02:22:20;;;;;;;25.08;17.67;;;;;;;4.48;73.11;100641.91;5071445;28;20017;-80
2021/01/03 02:24:57;;;;;;;22.98;16.02;;;;;;;4.51;72.76;100643.53;5071645;28;20486;-80
2021/01/03 02:27:27;;;;;;;22.45;16.25;;;;;;;4.33;73.77;100651.13;5071656;28;20029;-80
2021/01/03 02:29:55;;;;;;;22.23;15.85;;;;;;;4.51;72.58;100646.97;5071558;28;20027;-80
2021/01/03 02:32:22;;;;;;;23.33;16.65;;;;;;;4.50;72.59;100644.41;5070407;28;20074;-80
2021/01/03 02:34:49;;;;;;;22.60;16.63;;;;;;;4.56;73.11;100637.25;5071605;28;20031;-81
2021/01/03 02:37:39;;;;;;;22.90;16.92;;;;;;;4.60;72.42;100647.50;5071241;28;20075;-80
2021/01/03 02:40:24;;;;;;;25.42;16.88;;;;;;;4.67;73.06;100643.78;5071382;28;20028;-80
2021/01/03 02:42:51;;;;;;;24.83;17.02;;;;;;;4.63;72.37;100643.03;5071471;28;20035;-81
2021/01/03 02:45:18;;;;;;;23.92;15.95;;;;;;;4.70;72.93;100648.84;5072359;28;20036;-80
2021/01/03 02:47:43;;;;;;;20.05;14.55;;;;;;;4.64;73.10;100647.34;5089672;28;20533;-80
2021/01/03 02:50:14;;;;;;;20.92;15.73;;;;;;;4.77;73.03;100638.13;5089706;28;20115;-80
2021/01/03 02:52:42;;;;;;;23.63;16.52;;;;;;;4.84;72.28;100632.66;5091463;28;20020;-80
2021/01/03 02:55:09;;;;;;;18.90;14.43;;;;;;;4.84;72.25;100648.28;5091469;28;20028;-80
2021/01/03 02:57:35;;;;;;;19.15;14.38;;;;;;;4.83;71.91;100631.84;5089447;28;20032;-80
2021/01/03 03:00:01;;;;;;;18.15;14.35;;;;;;;4.86;71.43;100630.84;5091428;28;20074;-80
2021/01/03 03:02:26;;;;;;;19.95;15.27;;;;;;;4.73;72.28;100639.16;5091386;28;20024;-80
2021/01/03 03:04:52;;;;;;;20.10;15.35;;;;;;;4.87;72.34;100641.19;5091376;28;20032;-80
2021/01/03 03:07:17;;;;;;;20.77;15.60;;;;;;;4.81;71.88;100631.06;5089495;28;20056;-80
2021/01/03 03:09:43;;;;;;;17.98;14.25;;;;;;;4.76;72.16;100643.41;5091340;28;20281;-80
2021/01/03 03:12:08;;;;;;;19.27;15.02;;;;;;;4.60;72.92;100637.09;5091870;28;20066;-80
2021/01/03 03:14:34;;;;;;;16.25;13.73;;;;;;;4.86;71.80;100644.72;5089460;28;20043;-80
2021/01/03 03:17:02;;;;;;;18.17;14.50;;;;;;;4.43;73.41;100638.63;5091284;28;20107;-80
2021/01/03 03:19:27;;;;;;;17.10;13.70;;;;;;;4.71;72.78;100635.78;5091300;28;20028;-80
2021/01/03 03:21:54;;;;;;;17.58;13.90;;;;;;;4.87;72.54;100646.41;5093389;28;20097;-80
2021/01/03 03:24:20;;;;;;;20.10;15.05;;;;;;;4.87;72.14;100646.41;5095014;28;20254;-80
2021/01/03 03:26:57;;;;;;;18.63;14.63;;;;;;;4.81;72.47;100635.41;5094803;28;20105;-80
2021/01/03 03:29:24;;;;;;;21.05;15.30;;;;;;;4.72;72.83;100640.09;5090302;28;20025;-80
2021/01/03 03:31:50;;;;;;;16.60;13.52;;;;;;;4.64;72.61;100641.28;5074445;28;20025;-80
2021/01/03 03:34:16;;;;;;;17.17;14.13;;;;;;;4.67;73.19;100639.41;5074418;28;20393;-80
2021/01/03 03:36:42;;;;;;;18.35;14.38;;;;;;;4.77;72.48;100640.72;5074253;28;20020;-80
2021/01/03 03:39:08;;;;;;;19.17;15.48;;;;;;;4.60;73.46;100639.69;5074256;28;20024;-80
2021/01/03 03:41:33;;;;;;;20.98;15.20;;;;;;;4.71;73.77;100640.97;5072944;28;20035;-80
2021/01/03 03:43:58;;;;;;;21.63;15.98;;;;;;;4.58;73.25;100631.97;5076780;28;20028;-80
2021/01/03 03:46:24;;;;;;;18.90;14.85;;;;;;;4.75;73.01;100631.31;5093147;28;20485;-80
2021/01/03 03:48:49;;;;;;;20.15;15.25;;;;;;;4.89;73.42;100641.16;5094374;28;20063;-81
2021/01/03 03:51:19;;;;;;;20.13;15.40;;;;;;;4.81;72.47;100632.81;5094398;28;20035;-80
2021/01/03 03:53:45;;;;;;;19.60;14.38;;;;;;;4.73;73.04;100626.16;5092995;28;20073;-80
2021/01/03 03:56:12;;;;;;;19.55;14.52;;;;;;;4.69;72.86;100619.38;5094028;28;20106;-80
2021/01/03 03:58:38;;;;;;;19.83;15.02;;;;;;;4.76;72.62;100620.00;5092510;28;20039;-80
2021/01/03 04:01:04;;;;;;;19.45;14.55;;;;;;;4.75;72.45;100610.50;5079624;28;20028;-80
2021/01/03 04:03:29;;;;;;;20.45;15.77;;;;;;;4.80;73.58;100618.09;5093922;28;20098;-80
2021/01/03 04:05:55;;;;;;;18.73;14.75;;;;;;;4.79;72.66;100616.41;5094204;28;20107;-81
2021/01/03 04:08:20;;;;;;;20.50;16.13;;;;;;;4.84;73.46;100624.88;5094008;28;20035;-80
2021/01/03 04:10:45;;;;;;;19.25;15.07;;;;;;;4.88;72.88;100622.09;5092362;28;20507;-80
2021/01/03 04:13:11;;;;;;;18.88;15.13;;;;;;;4.81;72.91;100612.00;5094286;28;20054;-80
2021/01/03 04:15:37;;;;;;;18.77;15.30;;;;;;;4.93;72.84;100624.50;5089591;28;20031;-80
2021/01/03 04:18:04;;;;;;;18.52;14.30;;;;;;;4.90;73.19;100624.66;5073486;28;20554;-80
2021/01/03 04:20:29;;;;;;;17.80;14.73;;;;;;;4.89;72.14;100618.56;5073337;28;20024;-80
2021/01/03 04:22:55;;;;;;;18.25;14.60;;;;;;;4.97;72.94;100611.28;5073451;28;20116;-80
2021/01/03 04:25:21;;;;;;;19.92;15.75;;;;;;;4.94;72.67;100624.44;5072143;28;20107;-80
2021/01/03 04:27:46;;;;;;;18.33;14.68;;;;;;;4.97;71.95;100616.50;5081260;28;20543;-80
2021/01/03 04:30:14;;;;;;;19.20;15.20;;;;;;;4.92;72.61;100617.63;5093507;28;20020;-80
2021/01/03 04:32:39;;;;;;;19.95;15.10;;;;;;;4.77;72.79;100609.50;5093280;28;20020;-80
2021/01/03 04:35:07;;;;;;;18.65;14.57;;;;;;;4.91;72.96;100621.94;5093563;28;20610;-80
2021/01/03 04:37:32;;;;;;;21.48;16.33;;;;;;;5.07;73.09;100626.53;5093195;28;20107;-80
2021/01/03 04:39:58;;;;;;;20.38;16.25;;;;;;;5.05;72.29;100623.16;5093266;28;20112;-80
2021/01/03 04:42:29;;;;;;;19.10;15.00;;;;;;;5.01;72.96;100630.22;5087109;28;20031;-80
2021/01/03 04:45:00;;;;;;;20.30;14.55;;;;;;;5.05;72.83;100629.19;5073123;28;20032;-80
2021/01/03 04:47:25;;;;;;;23.05;15.52;;;;;;;5.06;72.08;100628.31;5073160;28;20426;-80
2021/01/03 04:49:59;;;;;;;19.95;14.60;;;;;;;5.23;71.94;100624.13;5072951;28;20032;-80
2021/01/03 04:53:02;;;;;;;18.27;14.55;;;;;;;5.31;71.84;100619.44;5072833;28;20020;-80
2021/01/03 04:55:29;;;;;;;18.33;14.10;;;;;;;5.31;71.91;100620.31;5071669;28;20071;-80
2021/01/03 04:57:54;;;;;;;16.52;13.43;;;;;;;5.09;72.17;100620.34;5073650;28;20120;-80
2021/01/03 05:00:21;;;;;;;17.25;12.50;;;;;;;5.20;70.87;100606.06;5071370;28;20116;-80
2021/01/03 05:03:28;;;;;;;17.77;14.25;;;;;;;5.23;71.62;100621.53;5072509;28;20033;-81
2021/01/03 05:05:54;;;;;;;18.77;12.73;;;;;;;5.34;71.39;100612.34;5051650;28;20086;-81
2021/01/03 05:08:41;;;;;;;25.92;14.90;;;;;;;5.22;71.35;100619.84;5072520;28;20397;-80
2021/01/03 05:11:11;;;;;;;18.52;14.27;;;;;;;5.28;71.35;100614.38;5072560;28;20021;-80
2021/01/03 05:13:42;;;;;;;18.75;13.95;;;;;;;5.42;71.07;100617.22;5073886;28;20470;-80
2021/01/03 05:16:17;;;;;;;17.52;13.88;;;;;;;5.43;70.72;100623.28;5072378;28;20035;-80
2021/01/03 05:18:44;;;;;;;18.95;13.80;;;;;;;5.46;71.57;100621.41;5071045;28;20036;-80
2021/01/03 05:21:10;;;;;;;20.52;15.65;;;;;;;5.39;71.48;100614.78;5072438;28;20059;-80
2021/01/03 05:23:38;;;;;;;17.13;14.13;;;;;;;5.34;71.01;100620.16;5072138;28;20060;-80
2021/01/03 05:26:34;;;;;;;22.20;15.07;;;;;;;5.22;71.74;100625.91;5072098;28;20055;-80
2021/01/03 05:29:00;;;;;;;18.33;13.95;;;;;;;5.31;71.19;100624.66;5079850;28;20057;-80
2021/01/03 05:31:27;;;;;;;19.05;14.77;;;;;;;5.37;71.90;100632.19;5092385;28;20059;-80
2021/01/03 05:33:59;;;;;;;21.90;15.25;;;;;;;5.39;71.94;100626.94;5092319;28;20390;-80
2021/01/03 05:36:49;;;;;;;20.15;15.35;;;;;;;5.41;72.19;100631.19;5092244;28;20050;-81
2021/01/03 05:39:18;;;;;;;18.40;14.38;;;;;;;5.41;71.57;100633.78;5092524;28;20040;-80
2021/01/03 05:41:43;;;;;;;19.20;14.85;;;;;;;5.43;71.80;100634.56;5092313;28;20024;-80
2021/01/03 05:44:20;;;;;;;23.23;15.63;;;;;;;5.23;71.33;100638.00;5078870;28;20109;-80
2021/01/03 05:46:48;;;;;;;19.08;14.57;;;;;;;5.41;71.65;100639.00;5071817;28;20494;-80
2021/01/03 05:49:25;;;;;;;19.00;15.00;;;;;;;5.24;71.34;100629.28;5072871;28;20029;-80
2021/01/03 05:52:03;;;;;;;20.92;14.35;;;;;;;5.43;71.87;100628.50;5071807;28;20044;-80
2021/01/03 05:54:35;;;;;;;19.25;13.85;;;;;;;5.31;71.13;100632.47;5072173;28;20016;-80
2021/01/03 05:57:29;;;;;;;22.23;15.32;;;;;;;5.40;71.38;100646.88;5072319;28;20141;-81
2021/01/03 05:59:55;;;;;;;22.70;14.70;;;;;;;4.88;72.95;100642.06;5074105;28;20086;-80
2021/01/03 06:02:26;;;;;;;20.27;14.70;;;;;;;5.09;72.00;100641.16;5084204;28;20028;-80
2021/01/03 06:05:14;;;;;;;18.45;12.95;;;;;;;5.34;72.28;100643.59;5070265;28;20077;-80
2021/01/03 06:08:04;;;;;;;19.08;14.23;;;;;;;5.36;71.53;100644.38;5082770;28;20051;-80
2021/01/03 06:10:37;;;;;;;21.08;15.02;;;;;;;5.19;72.30;100652.03;5071625;28;20032;-80
2021/01/03 06:13:05;;;;;;;20.52;14.68;;;;;;;5.24;72.08;100644.91;5089805;28;20046;-80
2021/01/03 06:15:37;;;;;;;19.88;14.75;;;;;;;5.23;72.41;100651.00;5076551;28;20032;-80
2021/01/03 06:18:04;;;;;;;20.38;14.52;;;;;;;5.30;72.17;100639.44;5072427;28;20039;-80
2021/01/03 06:20:31;;;;;;;23.17;15.27;;;;;;;5.36;72.27;100648.75;5072233;28;20036;-80
2021/01/03 06:23:08;;;;;;;20.40;14.27;;;;;;;5.27;71.75;100646.53;5076074;28;20138;-80
2021/01/03 06:25:42;;;;;;;23.33;16.02;;;;;;;5.28;72.91;100645.63;5088430;28;20028;-80
2021/01/03 06:28:33;;;;;;;19.40;13.50;;;;;;;5.37;72.22;100658.22;5087940;28;20024;-80
2021/01/03 06:31:28;;;;;;;21.20;14.30;;;;;;;5.44;71.92;100651.88;5091067;28;20110;-80
2021/01/03 06:34:16;;;;;;;18.77;13.70;;;;;;;5.53;70.90;100651.47;5085278;28;20028;-80
2021/01/03 06:37:00;;;;;;;17.80;14.18;;;;;;;5.54;71.75;100655.75;5089126;28;20054;-80
2021/01/03 06:39:46;;;;;;;16.58;13.13;;;;;;;5.51;71.25;100653.31;5090192;28;20428;-80
2021/01/03 06:42:33;;;;;;;19.30;14.05;;;;;;;5.43;72.21;100660.59;5076969;28;20013;-80
2021/01/03 06:45:24;;;;;;;19.15;13.85;;;;;;;5.43;71.71;100664.94;5072201;28;20028;-80
2021/01/03 06:47:52;;;;;;;21.77;15.07;;;;;;;5.37;71.29;100663.44;5044221;28;20036;-80
2021/01/03 06:50:37;;;;;;;19.70;14.00;;;;;;;5.38;72.19;100666.91;5078782;28;20029;-80
2021/01/03 06:53:20;;;;;;;20.42;14.73;;;;;;;5.46;71.86;100665.66;5069816;28;20225;-80
2021/01/03 06:56:18;;;;;;;22.13;15.30;;;;;;;5.43;72.36;100676.22;5071502;28;20162;-80
2021/01/03 06:58:49;;;;;;;22.58;14.57;;;;;;;5.20;73.14;100669.38;5080782;28;20032;-80
2021/01/03 07:01:25;;;;;;;20.63;13.65;;;;;;;5.46;71.58;100659.63;5074443;28;20052;-80
2021/01/03 07:03:54;;;;;;;23.95;14.38;;;;;;;5.39;71.30;100682.47;5073112;28;20025;-80
2021/01/03 07:06:20;;;;;;;21.67;15.43;;;;;;;5.36;71.78;100680.84;5074484;28;20078;-80
2021/01/03 07:08:49;;;;;;;20.60;14.90;;;;;;;5.40;71.68;100675.50;5074759;28;20028;-80
2021/01/03 07:11:36;;;;;;;21.80;14.32;;;;;;;5.27;72.47;100682.97;5075583;28;20528;-80
2021/01/03 07:14:28;;;;;;;18.77;13.77;;;;;;;5.32;72.43;100674.06;5080495;28;20028;-80
2021/01/03 07:16:58;;;;;;;;;;;;;;;5.50;71.54;100677.66;5078438;28;20027;-80
2021/01/03 07:19:52;;;;;;;20.67;14.00;;;;;;;5.41;72.21;100667.63;5080268;28;19947;-80
2021/01/03 07:22:22;;;;;;;19.02;13.75;;;;;;;5.17;72.80;100674.69;5067210;28;20509;-81
2021/01/03 07:24:51;;;;;;;23.77;15.27;;;;;;;5.19;72.69;100678.06;5074399;28;20421;-80
2021/01/03 07:27:25;;;;;;;22.67;14.80;;;;;;;5.20;73.22;100677.19;5082164;28;20032;-80
2021/01/03 07:29:57;;;;;;;21.23;13.98;;;;;;;5.36;72.88;100674.78;5086764;28;20424;-80
2021/01/03 07:32:37;;;;;;;19.33;14.13;;;;;;;5.28;72.70;100680.31;5092376;28;20028;-80
2021/01/03 07:35:07;;;;;;;18.05;12.80;;;;;;;5.40;71.80;100681.56;5094449;28;20028;-80
2021/01/03 07:37:35;;;;;;;20.15;13.45;;;;;;;5.41;72.32;100671.97;5094258;28;20127;-80
2021/01/03 07:40:08;;;;;;;22.63;13.43;;;;;;;5.40;71.98;100686.75;5077399;28;20048;-80
2021/01/03 07:42:58;;;;;;;18.75;13.43;;;;;;;5.33;72.37;100686.19;5084333;28;20020;-80
2021/01/03 07:45:27;;;;;;;20.40;14.25;;;;;;;5.31;71.81;100676.72;5092695;28;20038;-81
2021/01/03 07:47:54;;;;;;;20.75;14.07;;;;;;;5.46;71.84;100678.69;5089003;28;20537;-80
2021/01/03 07:50:22;;;;;;;18.15;13.70;;;;;;;5.24;72.22;100678.75;5094177;28;20028;-80
2021/01/03 07:52:59;;;;;;;18.45;13.63;;;;;;;5.51;71.84;100679.34;5094097;28;20508;-80
2021/01/03 07:55:29;;;;;;;16.38;12.82;;;;;;;5.57;71.79;100683.47;5075258;28;20043;-81
2021/01/03 07:58:00;;;;;;;23.33;14.73;;;;;;;5.40;72.66;100691.97;5085452;28;20081;-80
2021/01/03 08:00:28;;;;;;;21.63;15.77;;;;;;;5.28;73.07;100682.91;5089062;28;20051;-80
2021/01/03 08:03:06;;;;;;;19.48;14.40;;;;;;;5.45;72.39;100691.78;5093989;28;20035;-80
2021/01/03 08:05:33;;;;;;;23.15;14.25;;;;;;;5.45;71.89;100690.03;5094096;28;20028;-81
2021/01/03 08:08:26;;;;;;;20.17;13.38;;;;;;;5.43;72.27;100697.06;5090164;28;20019;-81
2021/01/03 08:11:06;;;;;;;18.23;13.00;;;;;;;5.53;71.81;100705.34;5068536;28;20139;-81
2021/01/03 08:13:43;;;;;;;20.02;13.85;;;;;;;5.46;72.09;100702.13;5074103;28;20021;-80
2021/01/03 08:16:09;;;;;;;17.80;13.65;;;;;;;5.49;72.25;100696.81;5073776;28;20115;-80
2021/01/03 08:18:40;;;;;;;17.35;12.95;;;;;;;5.56;71.69;100692.16;5090318;28;20020;-80
2021/01/03 08:21:16;;;;;;;15.95;12.20;;;;;;;5.36;72.79;100706.03;5093848;28;20409;-81
2021/01/03 08:23:42;;;;;;;20.63;12.98;;;;;;;5.48;71.33;100702.06;5088301;28;20020;-80
2021/01/03 08:26:10;;;;;;;17.70;12.23;;;;;;;5.61;71.90;100711.06;5096530;28;20031;-81
2021/01/03 08:28:42;;;;;;;15.63;11.18;;;;;;;5.51;71.65;100718.41;5078011;28;20033;-80
2021/01/03 08:31:13;;;;;;;16.50;12.73;;;;;;;5.54;71.27;100720.03;5072241;28;20039;-80
2021/01/03 08:33:40;;;;;;;15.77;12.40;;;;;;;5.49;71.58;100714.16;5073335;28;20539;-80
2021/01/03 08:36:35;;;;;;;14.82;11.52;;;;;;;5.56;72.11;100719.06;5075386;28;20036;-80
2021/01/03 08:39:07;;;;;;;16.90;12.20;;;;;;;5.42;71.68;100713.59;5073360;28;20052;-81
2021/01/03 08:41:55;;;;;;;14.65;11.15;;;;;;;5.49;71.93;100728.06;5091544;28;20028;-80
2021/01/03 08:44:26;;;;;;;13.45;10.38;;;;;;;5.42;71.39;100726.59;5084686;28;20064;-81
2021/01/03 08:47:08;;;;;;;14.40;11.05;;;;;;;5.48;71.97;100734.16;5091888;28;20485;-81
2021/01/03 08:49:34;;;;;;;17.38;10.93;;;;;;;5.63;71.09;100731.81;5077290;28;20071;-80
2021/01/03 08:52:17;;;;;;;15.15;11.13;;;;;;;5.66;71.98;100731.69;5083088;28;20139;-80
2021/01/03 08:54:44;;;;;;;16.38;11.32;;;;;;;5.52;71.92;100738.34;5085460;28;20032;-80
2021/01/03 08:57:10;;;;;;;15.57;10.90;;;;;;;5.57;72.27;100725.13;5092787;28;20027;-81
2021/01/03 08:59:35;;;;;;;12.93;10.07;;;;;;;5.71;71.71;100750.59;5083071;28;20029;-80
2021/01/03 09:02:01;;;;;;;13.68;10.57;;;;;;;5.65;70.43;100746.50;5088459;28;20530;-80
2021/01/03 09:04:27;;;;;;;14.50;10.43;;;;;;;5.48;72.49;100752.41;5090270;28;20543;-80
2021/01/03 09:06:57;;;;;;;13.75;10.23;;;;;;;5.72;71.27;100749.69;5077584;28;20032;-80
2021/01/03 09:09:26;;;;;;;14.60;11.18;;;;;;;5.47;72.22;100745.50;5073829;28;20028;-81
2021/01/03 09:11:54;;;;;;;16.40;9.95;;;;;;;5.75;71.11;100749.56;5074094;28;20027;-81
2021/01/03 09:14:29;;;;;;;13.77;10.25;;;;;;;5.64;71.50;100736.97;5081622;28;20031;-81
2021/01/03 09:17:03;;;;;;;11.55;9.50;;;;;;;5.68;71.74;100761.13;5074810;28;20107;-80
2021/01/03 09:19:47;;;;;;;16.05;11.73;;;;;;;5.79;71.27;100760.72;5079793;28;20077;-81
2021/01/03 09:22:41;;;;;;;15.93;10.23;;;;;;;5.83;71.46;100755.28;5091806;28;20020;-81
2021/01/03 09:25:20;;;;;;;12.30;9.38;;;;;;;5.69;72.39;100760.25;5078209;28;20191;-81
2021/01/03 09:27:52;;;;;;;17.50;9.85;;;;;;;5.41;72.82;100760.50;5092102;28;20020;-80
2021/01/03 09:30:37;;;;;;;15.48;10.25;;;;;;;5.56;71.67;100752.91;5086688;28;20025;-80
2021/01/03 09:33:13;;;;;;;12.20;9.55;;;;;;;5.73;71.60;100761.81;5070363;28;20121;-80
2021/01/03 09:35:41;;;;;;;15.38;9.70;;;;;;;5.77;71.44;100765.97;5088945;28;20029;-80
2021/01/03 09:38:25;;;;;;;15.60;9.77;;;;;;;5.65;71.92;100766.50;5087824;28;20046;-80
2021/01/03 09:40:59;;;;;;;14.07;10.18;;;;;;;5.83;71.75;100768.31;5080729;28;20036;-80
2021/01/03 09:43:49;;;;;;;14.90;10.02;;;;;;;5.97;71.21;100769.53;5071922;28;20115;-80
2021/01/03 09:46:25;;;;;;;17.30;11.10;;;;;;;5.83;72.01;100763.09;5073054;28;20060;-81
2021/01/03 09:48:51;;;;;;;16.30;11.27;;;;;;;5.94;71.40;100770.47;5081100;28;20057;-81
2021/01/03 09:51:39;;;;;;;14.75;10.93;;;;;;;5.95;71.43;100767.81;5090577;28;20024;-80
2021/01/03 09:54:18;;;;;;;14.95;10.82;;;;;;;6.17;71.20;100777.31;5088011;28;20016;-81
2021/01/03 09:56:45;;;;;;;13.43;10.38;;;;;;;6.15;70.72;100768.72;5085688;28;20723;-80
2021/01/03 09:59:19;;;;;;;19.27;10.85;;;;;;;6.20;70.74;100771.13;5074991;28;20039;-80
2021/01/03 10:01:47;;;;;;;13.32;9.73;;;;;;;6.27;69.79;100776.00;5077988;28;20048;-81
2021/01/03 10:04:29;;;;;;;16.02;9.93;;;;;;;6.44;70.67;100779.66;5091631;28;20016;-81
2021/01/03 10:07:14;;;;;;;14.18;10.32;;;;;;;6.52;69.46;100782.75;5088922;28;20024;-81
2021/01/03 10:09:49;;;;;;;18.52;10.80;;;;;;;6.49;70.90;100783.72;5071280;28;20135;-81
2021/01/03 10:12:26;;;;;;;13.75;10.65;;;;;;;6.51;70.24;100789.72;5086585;28;20031;-81
2021/01/03 10:15:07;;;;;;;12.68;9.25;;;;;;;6.52;69.71;100793.19;5075635;28;20070;-81
2021/01/03 10:17:33;;;;;;;10.52;8.73;;;;;;;6.55;69.57;100793.88;5082326;28;20028;-81
2021/01/03 10:19:58;;;;;;;12.60;9.60;;;;;;;6.59;69.53;100799.81;5090461;28;20499;-81
2021/01/03 10:22:30;;;;;;;11.55;9.00;;;;;;;6.54;69.82;100788.75;5091456;28;20470;-81
2021/01/03 10:25:00;;;;;;;11.63;8.80;;;;;;;6.64;69.92;100795.22;5090294;28;20028;-81
2021/01/03 10:27:27;;;;;;;14.48;9.05;;;;;;;6.42;69.70;100784.91;5087351;28;20032;-81
2021/01/03 10:29:52;;;;;;;11.63;9.07;;;;;;;6.34;70.36;100795.69;5091552;28;20107;-81
2021/01/03 10:32:18;;;;;;;12.07;8.73;;;;;;;6.58;69.87;100787.69;5083791;28;20103;-80
2021/01/03 10:34:43;;;;;;;11.93;9.43;;;;;;;6.70;69.09;100792.34;5089784;28;20064;-81
2021/01/03 10:37:08;;;;;;;12.20;8.77;;;;;;;6.70;69.31;100779.28;5095419;28;20032;-81
2021/01/03 10:39:34;;;;;;;11.95;8.75;;;;;;;6.91;69.23;100794.88;5094939;28;20035;-81
2021/01/03 10:42:03;;;;;;;10.63;7.93;;;;;;;6.91;69.63;100774.84;5094910;28;20085;-81
2021/01/03 10:44:28;;;;;;;12.93;8.90;;;;;;;6.83;69.29;100786.56;5086620;28;20505;-81
2021/01/03 10:46:55;;;;;;;10.07;7.55;;;;;;;6.99;68.52;100779.72;5079606;28;20051;-80
2021/01/03 10:49:20;;;;;;;10.73;8.57;;;;;;;7.32;68.49;100781.63;5086020;28;20033;-81
2021/01/03 10:51:47;;;;;;;9.48;7.60;;;;;;;7.79;68.10;100778.44;5075257;28;20032;-80
2021/01/03 10:54:17;;;;;;;13.65;9.68;;;;;;;7.73;67.86;100765.69;5090310;28;20481;-79
2021/01/03 10:56:51;;;;;;;12.57;8.02;;;;;;;8.04;66.64;100769.34;5079281;28;20036;-80
2021/01/03 10:59:17;;;;;;;11.95;7.93;;;;;;;8.05;66.63;100764.03;5076531;28;20119;-80
2021/01/03 11:01:44;;;;;;;11.43;7.70;;;;;;;8.25;66.09;100764.75;5083238;28;20020;-80
2021/01/03 11:04:10;;;;;;;10.27;8.13;;;;;;;8.08;65.24;100770.88;5091973;28;20030;-80
2021/01/03 11:06:38;;;;;;;10.65;8.00;;;;;;;7.95;65.13;100774.09;5083483;28;20107;-80
2021/01/03 11:09:05;;;;;;;9.52;7.72;;;;;;;7.85;65.75;100774.66;5088494;28;20069;-79
2021/01/03 11:11:31;;;;;;;8.10;7.07;;;;;;;7.70;67.26;100771.03;5084134;28;20035;-79
2021/01/03 11:13:56;;;;;;;9.48;7.68;;;;;;;7.79;66.17;100773.19;5080998;28;20132;-80
2021/01/03 11:16:33;;;;;;;9.93;7.65;;;;;;;7.60;67.65;100761.97;5080105;28;20024;-79
2021/01/03 11:18:59;;;;;;;8.75;7.40;;;;;;;7.57;67.65;100767.38;5080847;28;20028;-80
2021/01/03 11:21:24;;;;;;;9.98;7.38;;;;;;;7.70;66.52;100771.91;5075561;28;20458;-79
2021/01/03 11:23:49;;;;;;;9.07;6.55;;;;;;;7.70;66.77;100757.97;5083891;28;20654;-79
2021/01/03 11:26:15;;;;;;;10.65;6.70;;;;;;;7.74;67.03;100769.97;5089287;28;20028;-78
2021/01/03 11:28:40;;;;;;;10.77;7.07;;;;;;;7.36;68.26;100767.50;5088096;28;20036;-78
2021/01/03 11:31:06;;;;;;;9.10;6.57;;;;;;;7.64;67.57;100763.50;5093069;28;20024;-80
2021/01/03 11:33:31;;;;;;;8.90;7.40;;;;;;;7.69;67.45;100767.59;5087720;28;20024;-79
2021/01/03 11:35:57;;;;;;;10.63;7.10;;;;;;;7.92;67.49;100769.06;5091097;28;20052;-79
2021/01/03 11:38:23;;;;;;;7.70;6.15;;;;;;;8.08;67.16;100765.66;5096266;28;20024;-80